sensor_id;sensor_type;location;lat;lon;timestamp;temperature;humidity
44136;DHT22;29798;51.064;13.734;2022-11-11T00:00:58;7.70;99.90
44136;DHT22;29798;51.064;13.734;2022-11-11T00:03:47;7.80;99.90
44136;DHT22;29798;51.064;13.734;2022-11-11T00:06:31;7.80;99.90
44136;DHT22;29798;51.064;13.734;2022-11-11T00:09:16;7.90;99.90
44136;DHT22;29798;51.064;13.734;2022-11-11T00:12:00;7.90;99.90
44136;DHT22;29798;51.064;13.734;2022-11-11T00:14:44;7.90;99.90
44136;DHT22;29798;51.064;13.734;2022-11-11T00:17:29;7.70;99.90
44136;DHT22;29798;51.064;13.734;2022-11-11T00:20:32;7.70;99.90
44136;DHT22;29798;51.064;13.734;2022-11-11T00:23:35;7.60;99.90
44136;DHT22;29798;51.064;13.734;2022-11-11T00:26:38;7.60;99.90
44136;DHT22;29798;51.064;13.734;2022-11-11T00:29:23;7.60;99.90
44136;DHT22;29798;51.064;13.734;2022-11-11T00:32:07;7.60;99.90
44136;DHT22;29798;51.064;13.734;2022-11-11T00:35:09;7.60;99.90
44136;DHT22;29798;51.064;13.734;2022-11-11T00:38:13;7.70;99.90
44136;DHT22;29798;51.064;13.734;2022-11-11T00:41:18;7.70;99.90
44136;DHT22;29798;51.064;13.734;2022-11-11T00:44:03;7.80;99.90
44136;DHT22;29798;51.064;13.734;2022-11-11T00:46:47;7.80;99.90
44136;DHT22;29798;51.064;13.734;2022-11-11T00:49:51;7.70;99.90
44136;DHT22;29798;51.064;13.734;2022-11-11T00:52:54;7.70;99.90
44136;DHT22;29798;51.064;13.734;2022-11-11T00:55:38;7.70;99.90
44136;DHT22;29798;51.064;13.734;2022-11-11T00:58:23;7.70;99.90
44136;DHT22;29798;51.064;13.734;2022-11-11T01:01:07;7.60;99.90
44136;DHT22;29798;51.064;13.734;2022-11-11T01:03:52;7.60;99.90
44136;DHT22;29798;51.064;13.734;2022-11-11T01:06:36;7.60;99.90
44136;DHT22;29798;51.064;13.734;2022-11-11T01:09:21;7.50;99.90
44136;DHT22;29798;51.064;13.734;2022-11-11T01:12:05;7.50;99.90
44136;DHT22;29798;51.064;13.734;2022-11-11T01:14:49;7.50;99.90
44136;DHT22;29798;51.064;13.734;2022-11-11T01:17:33;7.50;99.90
44136;DHT22;29798;51.064;13.734;2022-11-11T01:20:17;7.50;99.90
44136;DHT22;29798;51.064;13.734;2022-11-11T01:23:02;7.60;99.90
44136;DHT22;29798;51.064;13.734;2022-11-11T01:25:50;7.60;99.90
44136;DHT22;29798;51.064;13.734;2022-11-11T01:28:35;7.50;99.90
44136;DHT22;29798;51.064;13.734;2022-11-11T01:31:20;7.50;99.90
44136;DHT22;29798;51.064;13.734;2022-11-11T01:34:05;7.40;99.90
44136;DHT22;29798;51.064;13.734;2022-11-11T01:36:50;7.30;99.90
44136;DHT22;29798;51.064;13.734;2022-11-11T01:39:35;7.30;99.90
44136;DHT22;29798;51.064;13.734;2022-11-11T01:42:19;7.30;99.90
44136;DHT22;29798;51.064;13.734;2022-11-11T01:45:38;7.40;99.90
44136;DHT22;29798;51.064;13.734;2022-11-11T01:48:33;7.40;99.90
44136;DHT22;29798;51.064;13.734;2022-11-11T02:00:19;7.40;99.90
44136;DHT22;29798;51.064;13.734;2022-11-11T02:03:04;7.30;99.90
44136;DHT22;29798;51.064;13.734;2022-11-11T02:05:50;7.30;99.90
44136;DHT22;29798;51.064;13.734;2022-11-11T02:08:38;7.30;99.90
44136;DHT22;29798;51.064;13.734;2022-11-11T02:11:22;7.20;99.90
44136;DHT22;29798;51.064;13.734;2022-11-11T02:14:26;7.20;99.90
44136;DHT22;29798;51.064;13.734;2022-11-11T02:17:19;7.30;99.90
44136;DHT22;29798;51.064;13.734;2022-11-11T02:20:03;7.30;99.90
44136;DHT22;29798;51.064;13.734;2022-11-11T02:22:56;7.30;99.90
44136;DHT22;29798;51.064;13.734;2022-11-11T02:25:45;7.20;99.90
44136;DHT22;29798;51.064;13.734;2022-11-11T02:28:31;7.30;99.90
44136;DHT22;29798;51.064;13.734;2022-11-11T02:31:17;7.20;99.90
44136;DHT22;29798;51.064;13.734;2022-11-11T02:34:01;7.20;99.90
44136;DHT22;29798;51.064;13.734;2022-11-11T02:36:45;7.20;99.90
44136;DHT22;29798;51.064;13.734;2022-11-11T02:39:30;7.20;99.90
44136;DHT22;29798;51.064;13.734;2022-11-11T02:42:14;7.20;99.90
44136;DHT22;29798;51.064;13.734;2022-11-11T02:44:59;7.30;99.90
44136;DHT22;29798;51.064;13.734;2022-11-11T02:47:43;7.30;99.90
44136;DHT22;29798;51.064;13.734;2022-11-11T02:50:28;7.30;99.90
44136;DHT22;29798;51.064;13.734;2022-11-11T02:53:12;7.30;99.90
44136;DHT22;29798;51.064;13.734;2022-11-11T02:55:56;7.30;99.90
44136;DHT22;29798;51.064;13.734;2022-11-11T02:58:40;7.30;99.90
44136;DHT22;29798;51.064;13.734;2022-11-11T03:01:25;7.20;99.90
44136;DHT22;29798;51.064;13.734;2022-11-11T03:04:09;7.30;99.90
44136;DHT22;29798;51.064;13.734;2022-11-11T03:06:53;7.30;99.90
44136;DHT22;29798;51.064;13.734;2022-11-11T03:09:37;7.20;99.90
44136;DHT22;29798;51.064;13.734;2022-11-11T03:12:22;7.20;99.90
44136;DHT22;29798;51.064;13.734;2022-11-11T03:15:06;7.20;99.90
44136;DHT22;29798;51.064;13.734;2022-11-11T03:17:50;7.30;99.90
44136;DHT22;29798;51.064;13.734;2022-11-11T03:20:35;7.30;99.90
44136;DHT22;29798;51.064;13.734;2022-11-11T03:23:38;7.30;99.90
44136;DHT22;29798;51.064;13.734;2022-11-11T03:26:22;7.30;99.90
44136;DHT22;29798;51.064;13.734;2022-11-11T03:29:06;7.40;99.90
44136;DHT22;29798;51.064;13.734;2022-11-11T03:31:50;7.30;99.90
44136;DHT22;29798;51.064;13.734;2022-11-11T03:34:35;7.30;99.90
44136;DHT22;29798;51.064;13.734;2022-11-11T03:37:19;7.30;99.90
44136;DHT22;29798;51.064;13.734;2022-11-11T03:40:22;7.30;99.90
44136;DHT22;29798;51.064;13.734;2022-11-11T03:43:06;7.30;99.90
44136;DHT22;29798;51.064;13.734;2022-11-11T03:45:51;7.20;99.90
44136;DHT22;29798;51.064;13.734;2022-11-11T03:48:37;7.20;99.90
44136;DHT22;29798;51.064;13.734;2022-11-11T03:51:21;7.10;99.90
44136;DHT22;29798;51.064;13.734;2022-11-11T03:54:06;7.10;99.90
44136;DHT22;29798;51.064;13.734;2022-11-11T03:56:50;7.10;99.90
44136;DHT22;29798;51.064;13.734;2022-11-11T03:59:34;7.00;99.90
44136;DHT22;29798;51.064;13.734;2022-11-11T04:02:18;7.00;99.90
44136;DHT22;29798;51.064;13.734;2022-11-11T04:05:21;7.00;99.90
44136;DHT22;29798;51.064;13.734;2022-11-11T04:08:24;7.00;99.90
44136;DHT22;29798;51.064;13.734;2022-11-11T04:11:38;7.00;99.90
44136;DHT22;29798;51.064;13.734;2022-11-11T04:14:23;7.10;99.90
44136;DHT22;29798;51.064;13.734;2022-11-11T04:17:27;7.00;99.90
44136;DHT22;29798;51.064;13.734;2022-11-11T04:20:11;6.90;99.90
44136;DHT22;29798;51.064;13.734;2022-11-11T04:23:14;6.80;99.90
44136;DHT22;29798;51.064;13.734;2022-11-11T04:26:01;6.90;99.90
44136;DHT22;29798;51.064;13.734;2022-11-11T04:28:45;6.90;99.90
44136;DHT22;29798;51.064;13.734;2022-11-11T04:31:48;6.80;99.90
44136;DHT22;29798;51.064;13.734;2022-11-11T04:34:53;6.90;99.90
44136;DHT22;29798;51.064;13.734;2022-11-11T04:37:47;7.10;99.90
44136;DHT22;29798;51.064;13.734;2022-11-11T04:40:35;7.00;99.90
44136;DHT22;29798;51.064;13.734;2022-11-11T04:43:38;7.10;99.90
44136;DHT22;29798;51.064;13.734;2022-11-11T04:46:41;7.10;99.90
44136;DHT22;29798;51.064;13.734;2022-11-11T04:49:25;7.20;99.90
44136;DHT22;29798;51.064;13.734;2022-11-11T04:52:09;7.20;99.90
44136;DHT22;29798;51.064;13.734;2022-11-11T04:55:09;7.10;99.90
44136;DHT22;29798;51.064;13.734;2022-11-11T04:58:13;7.10;99.90
44136;DHT22;29798;51.064;13.734;2022-11-11T05:00:57;7.20;99.90
44136;DHT22;29798;51.064;13.734;2022-11-11T05:03:42;7.30;99.90
44136;DHT22;29798;51.064;13.734;2022-11-11T05:06:26;7.30;99.90
44136;DHT22;29798;51.064;13.734;2022-11-11T05:09:29;7.30;99.90
44136;DHT22;29798;51.064;13.734;2022-11-11T05:12:13;7.20;99.90
44136;DHT22;29798;51.064;13.734;2022-11-11T05:14:58;7.20;99.90
44136;DHT22;29798;51.064;13.734;2022-11-11T05:18:01;7.10;99.90
44136;DHT22;29798;51.064;13.734;2022-11-11T05:21:07;7.10;99.90
44136;DHT22;29798;51.064;13.734;2022-11-11T05:24:04;7.10;99.90
44136;DHT22;29798;51.064;13.734;2022-11-11T05:27:07;7.00;99.90
44136;DHT22;29798;51.064;13.734;2022-11-11T05:29:52;6.90;99.90
44136;DHT22;29798;51.064;13.734;2022-11-11T05:32:36;7.00;99.90
44136;DHT22;29798;51.064;13.734;2022-11-11T05:35:21;7.00;99.90
44136;DHT22;29798;51.064;13.734;2022-11-11T05:38:05;7.00;99.90
44136;DHT22;29798;51.064;13.734;2022-11-11T05:41:05;6.90;99.90
44136;DHT22;29798;51.064;13.734;2022-11-11T05:43:50;7.00;99.90
44136;DHT22;29798;51.064;13.734;2022-11-11T05:46:34;7.10;99.90
44136;DHT22;29798;51.064;13.734;2022-11-11T05:49:19;7.00;99.90
44136;DHT22;29798;51.064;13.734;2022-11-11T05:52:03;7.00;99.90
44136;DHT22;29798;51.064;13.734;2022-11-11T05:54:48;7.10;99.90
44136;DHT22;29798;51.064;13.734;2022-11-11T05:57:32;7.10;99.90
44136;DHT22;29798;51.064;13.734;2022-11-11T06:00:17;7.10;99.90
44136;DHT22;29798;51.064;13.734;2022-11-11T06:03:02;7.10;99.90
44136;DHT22;29798;51.064;13.734;2022-11-11T06:05:47;7.10;99.90
44136;DHT22;29798;51.064;13.734;2022-11-11T06:08:31;7.00;99.90
44136;DHT22;29798;51.064;13.734;2022-11-11T06:11:15;6.90;99.90
44136;DHT22;29798;51.064;13.734;2022-11-11T06:14:00;7.00;99.90
44136;DHT22;29798;51.064;13.734;2022-11-11T06:16:44;7.00;99.90
44136;DHT22;29798;51.064;13.734;2022-11-11T06:19:28;7.00;99.90
44136;DHT22;29798;51.064;13.734;2022-11-11T06:22:12;7.00;99.90
44136;DHT22;29798;51.064;13.734;2022-11-11T06:24:56;7.10;99.90
44136;DHT22;29798;51.064;13.734;2022-11-11T06:28:01;7.10;99.90
44136;DHT22;29798;51.064;13.734;2022-11-11T06:30:45;7.20;99.90
44136;DHT22;29798;51.064;13.734;2022-11-11T06:33:29;7.20;99.90
44136;DHT22;29798;51.064;13.734;2022-11-11T06:36:14;7.20;99.90
44136;DHT22;29798;51.064;13.734;2022-11-11T06:39:00;7.20;99.90
44136;DHT22;29798;51.064;13.734;2022-11-11T06:41:44;7.20;99.90
44136;DHT22;29798;51.064;13.734;2022-11-11T06:44:29;7.20;99.90
44136;DHT22;29798;51.064;13.734;2022-11-11T06:47:13;7.30;99.90
44136;DHT22;29798;51.064;13.734;2022-11-11T06:49:58;7.30;99.90
44136;DHT22;29798;51.064;13.734;2022-11-11T06:52:43;7.30;99.90
44136;DHT22;29798;51.064;13.734;2022-11-11T06:55:27;7.30;99.90
44136;DHT22;29798;51.064;13.734;2022-11-11T06:58:13;7.30;99.90
44136;DHT22;29798;51.064;13.734;2022-11-11T07:01:03;7.30;99.90
44136;DHT22;29798;51.064;13.734;2022-11-11T07:03:48;7.30;99.90
44136;DHT22;29798;51.064;13.734;2022-11-11T07:06:32;7.30;99.90
44136;DHT22;29798;51.064;13.734;2022-11-11T07:09:16;7.50;99.90
44136;DHT22;29798;51.064;13.734;2022-11-11T07:12:00;7.50;99.90
44136;DHT22;29798;51.064;13.734;2022-11-11T07:14:45;7.60;99.90
44136;DHT22;29798;51.064;13.734;2022-11-11T07:17:29;7.60;99.90
44136;DHT22;29798;51.064;13.734;2022-11-11T07:20:14;7.80;99.90
44136;DHT22;29798;51.064;13.734;2022-11-11T07:22:58;7.80;99.90
44136;DHT22;29798;51.064;13.734;2022-11-11T07:25:42;7.90;99.90
44136;DHT22;29798;51.064;13.734;2022-11-11T07:28:28;8.00;99.90
44136;DHT22;29798;51.064;13.734;2022-11-11T07:31:12;8.10;99.90
44136;DHT22;29798;51.064;13.734;2022-11-11T07:33:56;8.20;99.90
44136;DHT22;29798;51.064;13.734;2022-11-11T07:36:40;8.40;99.90
44136;DHT22;29798;51.064;13.734;2022-11-11T07:39:24;8.70;99.90
44136;DHT22;29798;51.064;13.734;2022-11-11T07:42:09;8.60;99.90
44136;DHT22;29798;51.064;13.734;2022-11-11T07:44:53;8.80;99.90
44136;DHT22;29798;51.064;13.734;2022-11-11T07:47:37;8.90;99.90
44136;DHT22;29798;51.064;13.734;2022-11-11T07:50:22;9.10;99.90
44136;DHT22;29798;51.064;13.734;2022-11-11T07:53:07;9.20;99.90
44136;DHT22;29798;51.064;13.734;2022-11-11T07:55:51;9.40;99.90
44136;DHT22;29798;51.064;13.734;2022-11-11T07:58:35;9.70;99.90
44136;DHT22;29798;51.064;13.734;2022-11-11T08:01:19;9.70;99.90
44136;DHT22;29798;51.064;13.734;2022-11-11T08:04:04;9.90;99.90
44136;DHT22;29798;51.064;13.734;2022-11-11T08:06:48;10.00;99.90
44136;DHT22;29798;51.064;13.734;2022-11-11T08:09:32;10.10;99.90
44136;DHT22;29798;51.064;13.734;2022-11-11T08:12:16;10.20;99.90
44136;DHT22;29798;51.064;13.734;2022-11-11T08:15:19;10.30;99.90
44136;DHT22;29798;51.064;13.734;2022-11-11T08:18:03;10.50;99.90
44136;DHT22;29798;51.064;13.734;2022-11-11T08:20:48;10.50;99.90
44136;DHT22;29798;51.064;13.734;2022-11-11T08:23:33;10.50;99.90
44136;DHT22;29798;51.064;13.734;2022-11-11T08:26:20;10.30;99.90
44136;DHT22;29798;51.064;13.734;2022-11-11T08:29:06;10.00;99.90
44136;DHT22;29798;51.064;13.734;2022-11-11T08:31:51;10.00;99.90
44136;DHT22;29798;51.064;13.734;2022-11-11T08:34:36;10.00;99.90
44136;DHT22;29798;51.064;13.734;2022-11-11T08:37:20;9.90;99.90
44136;DHT22;29798;51.064;13.734;2022-11-11T08:40:04;9.80;99.90
44136;DHT22;29798;51.064;13.734;2022-11-11T08:42:49;9.90;99.90
44136;DHT22;29798;51.064;13.734;2022-11-11T08:45:33;9.90;99.90
44136;DHT22;29798;51.064;13.734;2022-11-11T08:48:17;9.90;99.90
44136;DHT22;29798;51.064;13.734;2022-11-11T08:51:02;10.00;99.90
44136;DHT22;29798;51.064;13.734;2022-11-11T08:53:46;10.00;99.90
44136;DHT22;29798;51.064;13.734;2022-11-11T08:56:30;10.10;99.90
44136;DHT22;29798;51.064;13.734;2022-11-11T08:59:14;10.40;99.90
44136;DHT22;29798;51.064;13.734;2022-11-11T09:01:58;10.40;99.90
44136;DHT22;29798;51.064;13.734;2022-11-11T09:04:43;10.60;99.90
44136;DHT22;29798;51.064;13.734;2022-11-11T09:07:27;10.70;99.90
44136;DHT22;29798;51.064;13.734;2022-11-11T09:10:11;11.00;99.90
44136;DHT22;29798;51.064;13.734;2022-11-11T09:12:56;11.20;99.90
44136;DHT22;29798;51.064;13.734;2022-11-11T09:15:40;11.60;99.90
44136;DHT22;29798;51.064;13.734;2022-11-11T09:18:25;12.00;99.90
44136;DHT22;29798;51.064;13.734;2022-11-11T09:21:10;12.50;99.90
44136;DHT22;29798;51.064;13.734;2022-11-11T09:23:54;12.70;99.90
44136;DHT22;29798;51.064;13.734;2022-11-11T09:26:38;13.00;99.90
44136;DHT22;29798;51.064;13.734;2022-11-11T09:29:22;13.70;99.90
44136;DHT22;29798;51.064;13.734;2022-11-11T09:32:06;13.80;99.90
44136;DHT22;29798;51.064;13.734;2022-11-11T09:34:51;14.30;99.90
44136;DHT22;29798;51.064;13.734;2022-11-11T09:37:38;14.90;99.90
44136;DHT22;29798;51.064;13.734;2022-11-11T09:40:22;15.10;99.90
44136;DHT22;29798;51.064;13.734;2022-11-11T09:43:11;13.70;99.90
44136;DHT22;29798;51.064;13.734;2022-11-11T09:49:37;14.70;99.90
44136;DHT22;29798;51.064;13.734;2022-11-11T09:58:31;14.10;99.90
44136;DHT22;29798;51.064;13.734;2022-11-11T10:01:22;14.00;99.90
44136;DHT22;29798;51.064;13.734;2022-11-11T10:07:25;13.70;99.90
44136;DHT22;29798;51.064;13.734;2022-11-11T10:13:32;13.50;99.90
44136;DHT22;29798;51.064;13.734;2022-11-11T10:21:58;13.70;99.90
44136;DHT22;29798;51.064;13.734;2022-11-11T10:24:45;14.00;99.90
44136;DHT22;29798;51.064;13.734;2022-11-11T10:27:34;14.80;99.90
44136;DHT22;29798;51.064;13.734;2022-11-11T10:30:24;16.40;99.90
44136;DHT22;29798;51.064;13.734;2022-11-11T10:33:12;13.20;99.90
44136;DHT22;29798;51.064;13.734;2022-11-11T10:36:00;18.60;99.90
44136;DHT22;29798;51.064;13.734;2022-11-11T10:38:49;19.10;99.90
44136;DHT22;29798;51.064;13.734;2022-11-11T10:41:37;18.90;99.90
44136;DHT22;29798;51.064;13.734;2022-11-11T10:44:25;21.30;99.90
44136;DHT22;29798;51.064;13.734;2022-11-11T10:49:57;16.90;99.90
44136;DHT22;29798;51.064;13.734;2022-11-11T10:52:47;16.60;99.90
44136;DHT22;29798;51.064;13.734;2022-11-11T10:55:42;16.40;99.90
44136;DHT22;29798;51.064;13.734;2022-11-11T10:58:33;16.20;99.90
44136;DHT22;29798;51.064;13.734;2022-11-11T11:01:24;16.10;99.90
44136;DHT22;29798;51.064;13.734;2022-11-11T11:04:23;16.40;99.90
44136;DHT22;29798;51.064;13.734;2022-11-11T11:07:12;16.90;99.90
44136;DHT22;29798;51.064;13.734;2022-11-11T11:10:01;17.80;99.90
44136;DHT22;29798;51.064;13.734;2022-11-11T11:15:40;19.10;99.90
44136;DHT22;29798;51.064;13.734;2022-11-11T11:18:27;20.20;99.90
44136;DHT22;29798;51.064;13.734;2022-11-11T11:21:12;20.60;99.90
44136;DHT22;29798;51.064;13.734;2022-11-11T11:23:56;20.40;99.90
44136;DHT22;29798;51.064;13.734;2022-11-11T11:26:45;20.10;99.90
44136;DHT22;29798;51.064;13.734;2022-11-11T11:29:34;20.00;99.90
44136;DHT22;29798;51.064;13.734;2022-11-11T11:32:27;20.00;99.90
44136;DHT22;29798;51.064;13.734;2022-11-11T11:38:15;19.70;99.90
44136;DHT22;29798;51.064;13.734;2022-11-11T11:41:00;19.30;99.90
44136;DHT22;29798;51.064;13.734;2022-11-11T11:43:44;19.20;99.90
44136;DHT22;29798;51.064;13.734;2022-11-11T11:55:14;19.60;99.90
44136;DHT22;29798;51.064;13.734;2022-11-11T12:01:15;19.50;99.90
44136;DHT22;29798;51.064;13.734;2022-11-11T12:04:07;15.60;99.90
44136;DHT22;29798;51.064;13.734;2022-11-11T12:10:07;19.50;99.90
44136;DHT22;29798;51.064;13.734;2022-11-11T12:13:14;19.50;99.90
44136;DHT22;29798;51.064;13.734;2022-11-11T12:16:08;19.20;99.90
44136;DHT22;29798;51.064;13.734;2022-11-11T12:34:34;20.70;99.90
44136;DHT22;29798;51.064;13.734;2022-11-11T12:44:07;20.40;99.90
44136;DHT22;29798;51.064;13.734;2022-11-11T12:46:58;20.20;99.90
44136;DHT22;29798;51.064;13.734;2022-11-11T12:53:14;19.40;99.90
44136;DHT22;29798;51.064;13.734;2022-11-11T12:59:02;18.60;99.90
44136;DHT22;29798;51.064;13.734;2022-11-11T13:04:55;18.50;99.90
44136;DHT22;29798;51.064;13.734;2022-11-11T13:07:56;18.50;99.90
44136;DHT22;29798;51.064;13.734;2022-11-11T13:17:18;18.10;99.90
44136;DHT22;29798;51.064;13.734;2022-11-11T13:20:04;17.80;99.90
44136;DHT22;29798;51.064;13.734;2022-11-11T13:22:58;17.60;99.90
44136;DHT22;29798;51.064;13.734;2022-11-11T13:25:46;17.30;99.90
44136;DHT22;29798;51.064;13.734;2022-11-11T13:28:33;17.00;99.90
44136;DHT22;29798;51.064;13.734;2022-11-11T13:34:09;16.60;99.90
44136;DHT22;29798;51.064;13.734;2022-11-11T13:36:54;16.40;99.90
44136;DHT22;29798;51.064;13.734;2022-11-11T13:39:43;16.20;99.90
44136;DHT22;29798;51.064;13.734;2022-11-11T13:42:31;16.20;99.90
44136;DHT22;29798;51.064;13.734;2022-11-11T13:48:20;15.90;99.90
44136;DHT22;29798;51.064;13.734;2022-11-11T13:51:25;15.70;99.90
44136;DHT22;29798;51.064;13.734;2022-11-11T13:57:23;15.60;99.90
44136;DHT22;29798;51.064;13.734;2022-11-11T14:08:55;15.10;99.90
44136;DHT22;29798;51.064;13.734;2022-11-11T14:11:40;15.00;99.90
44136;DHT22;29798;51.064;13.734;2022-11-11T14:17:14;14.80;99.90
44136;DHT22;29798;51.064;13.734;2022-11-11T14:23:32;14.50;99.90
44136;DHT22;29798;51.064;13.734;2022-11-11T14:26:20;14.30;99.90
44136;DHT22;29798;51.064;13.734;2022-11-11T14:29:13;14.20;99.90
44136;DHT22;29798;51.064;13.734;2022-11-11T14:38:11;13.90;99.90
44136;DHT22;29798;51.064;13.734;2022-11-11T14:50:00;13.20;99.90
44136;DHT22;29798;51.064;13.734;2022-11-11T14:52:44;13.10;99.90
44136;DHT22;29798;51.064;13.734;2022-11-11T14:55:29;13.00;99.90
44136;DHT22;29798;51.064;13.734;2022-11-11T14:58:17;13.00;99.90
44136;DHT22;29798;51.064;13.734;2022-11-11T15:03:55;12.80;99.90
44136;DHT22;29798;51.064;13.734;2022-11-11T15:06:44;12.70;99.90
44136;DHT22;29798;51.064;13.734;2022-11-11T15:34:16;11.60;99.90
44136;DHT22;29798;51.064;13.734;2022-11-11T15:37:05;11.40;99.90
44136;DHT22;29798;51.064;13.734;2022-11-11T15:39:53;11.30;99.90
44136;DHT22;29798;51.064;13.734;2022-11-11T15:42:39;11.20;99.90
44136;DHT22;29798;51.064;13.734;2022-11-11T15:45:32;11.10;99.90
44136;DHT22;29798;51.064;13.734;2022-11-11T15:48:18;11.00;99.90
44136;DHT22;29798;51.064;13.734;2022-11-11T15:54:21;10.80;99.90
44136;DHT22;29798;51.064;13.734;2022-11-11T15:57:39;10.80;99.90
44136;DHT22;29798;51.064;13.734;2022-11-11T16:03:16;10.70;99.90
44136;DHT22;29798;51.064;13.734;2022-11-11T16:06:03;10.70;99.90
44136;DHT22;29798;51.064;13.734;2022-11-11T16:08:58;10.70;99.90
44136;DHT22;29798;51.064;13.734;2022-11-11T16:11:42;10.70;99.90
44136;DHT22;29798;51.064;13.734;2022-11-11T16:17:15;10.60;99.90
44136;DHT22;29798;51.064;13.734;2022-11-11T16:20:01;10.40;99.90
44136;DHT22;29798;51.064;13.734;2022-11-11T16:22:45;10.40;99.90
44136;DHT22;29798;51.064;13.734;2022-11-11T16:25:30;10.30;99.90
44136;DHT22;29798;51.064;13.734;2022-11-11T16:28:15;10.20;99.90
44136;DHT22;29798;51.064;13.734;2022-11-11T16:31:18;10.20;99.90
44136;DHT22;29798;51.064;13.734;2022-11-11T16:37:11;10.10;99.90
44136;DHT22;29798;51.064;13.734;2022-11-11T16:40:23;10.10;99.90
44136;DHT22;29798;51.064;13.734;2022-11-11T16:46:14;10.00;99.90
44136;DHT22;29798;51.064;13.734;2022-11-11T16:49:45;9.90;99.90
44136;DHT22;29798;51.064;13.734;2022-11-11T16:52:15;9.90;99.90
44136;DHT22;29798;51.064;13.734;2022-11-11T16:55:02;9.80;99.90
44136;DHT22;29798;51.064;13.734;2022-11-11T16:57:47;9.80;99.90
44136;DHT22;29798;51.064;13.734;2022-11-11T17:00:31;9.80;99.90
44136;DHT22;29798;51.064;13.734;2022-11-11T17:03:17;9.70;99.90
44136;DHT22;29798;51.064;13.734;2022-11-11T17:08:48;9.60;99.90
44136;DHT22;29798;51.064;13.734;2022-11-11T17:14:24;9.60;99.90
44136;DHT22;29798;51.064;13.734;2022-11-11T17:17:09;9.60;99.90
44136;DHT22;29798;51.064;13.734;2022-11-11T17:19:54;9.60;99.90
44136;DHT22;29798;51.064;13.734;2022-11-11T17:22:59;9.60;99.90
44136;DHT22;29798;51.064;13.734;2022-11-11T17:25:43;9.50;99.90
44136;DHT22;29798;51.064;13.734;2022-11-11T17:28:32;9.50;99.90
44136;DHT22;29798;51.064;13.734;2022-11-11T17:31:18;9.40;99.90
44136;DHT22;29798;51.064;13.734;2022-11-11T17:34:08;9.10;99.90
44136;DHT22;29798;51.064;13.734;2022-11-11T17:36:53;9.30;99.90
44136;DHT22;29798;51.064;13.734;2022-11-11T17:39:37;9.20;99.90
44136;DHT22;29798;51.064;13.734;2022-11-11T17:42:29;9.20;99.90
44136;DHT22;29798;51.064;13.734;2022-11-11T17:45:13;9.10;99.90
44136;DHT22;29798;51.064;13.734;2022-11-11T17:47:57;9.10;99.90
44136;DHT22;29798;51.064;13.734;2022-11-11T17:50:41;9.10;99.90
44136;DHT22;29798;51.064;13.734;2022-11-11T17:53:26;9.10;99.90
44136;DHT22;29798;51.064;13.734;2022-11-11T17:56:10;9.10;99.90
44136;DHT22;29798;51.064;13.734;2022-11-11T17:58:54;8.90;99.90
44136;DHT22;29798;51.064;13.734;2022-11-11T18:01:38;8.90;99.90
44136;DHT22;29798;51.064;13.734;2022-11-11T18:04:23;8.80;99.90
44136;DHT22;29798;51.064;13.734;2022-11-11T18:07:07;8.80;99.90
44136;DHT22;29798;51.064;13.734;2022-11-11T18:09:52;8.70;99.90
44136;DHT22;29798;51.064;13.734;2022-11-11T18:12:36;8.70;99.90
44136;DHT22;29798;51.064;13.734;2022-11-11T18:15:20;8.70;99.90
44136;DHT22;29798;51.064;13.734;2022-11-11T18:18:04;8.70;99.90
44136;DHT22;29798;51.064;13.734;2022-11-11T18:20:49;8.60;99.90
44136;DHT22;29798;51.064;13.734;2022-11-11T18:23:35;8.60;99.90
44136;DHT22;29798;51.064;13.734;2022-11-11T18:26:21;8.50;99.90
44136;DHT22;29798;51.064;13.734;2022-11-11T18:29:05;8.50;99.90
44136;DHT22;29798;51.064;13.734;2022-11-11T18:31:54;8.50;99.90
44136;DHT22;29798;51.064;13.734;2022-11-11T18:34:38;8.50;99.90
44136;DHT22;29798;51.064;13.734;2022-11-11T18:37:23;8.50;99.90
44136;DHT22;29798;51.064;13.734;2022-11-11T18:40:07;8.40;99.90
44136;DHT22;29798;51.064;13.734;2022-11-11T18:42:52;8.40;99.90
44136;DHT22;29798;51.064;13.734;2022-11-11T18:45:36;8.40;99.90
44136;DHT22;29798;51.064;13.734;2022-11-11T18:48:20;8.40;99.90
44136;DHT22;29798;51.064;13.734;2022-11-11T18:51:05;8.30;99.90
44136;DHT22;29798;51.064;13.734;2022-11-11T18:53:50;8.30;99.90
44136;DHT22;29798;51.064;13.734;2022-11-11T18:56:35;8.30;99.90
44136;DHT22;29798;51.064;13.734;2022-11-11T18:59:20;8.30;99.90
44136;DHT22;29798;51.064;13.734;2022-11-11T19:02:06;8.20;99.90
44136;DHT22;29798;51.064;13.734;2022-11-11T19:04:51;8.20;99.90
44136;DHT22;29798;51.064;13.734;2022-11-11T19:07:35;8.20;99.90
44136;DHT22;29798;51.064;13.734;2022-11-11T19:10:19;8.20;99.90
44136;DHT22;29798;51.064;13.734;2022-11-11T19:13:03;8.10;99.90
44136;DHT22;29798;51.064;13.734;2022-11-11T19:15:48;8.20;99.90
44136;DHT22;29798;51.064;13.734;2022-11-11T19:18:32;8.10;99.90
44136;DHT22;29798;51.064;13.734;2022-11-11T19:21:20;8.10;99.90
44136;DHT22;29798;51.064;13.734;2022-11-11T19:24:07;8.10;99.90
44136;DHT22;29798;51.064;13.734;2022-11-11T19:26:51;8.00;99.90
44136;DHT22;29798;51.064;13.734;2022-11-11T19:29:36;8.00;99.90
44136;DHT22;29798;51.064;13.734;2022-11-11T19:32:20;8.00;99.90
44136;DHT22;29798;51.064;13.734;2022-11-11T19:35:04;7.90;99.90
44136;DHT22;29798;51.064;13.734;2022-11-11T19:37:49;9.60;99.90
44136;DHT22;29798;51.064;13.734;2022-11-11T19:40:35;8.00;99.90
44136;DHT22;29798;51.064;13.734;2022-11-11T19:43:20;8.00;99.90
44136;DHT22;29798;51.064;13.734;2022-11-11T19:46:05;8.00;99.90
44136;DHT22;29798;51.064;13.734;2022-11-11T19:48:53;8.00;99.90
44136;DHT22;29798;51.064;13.734;2022-11-11T19:51:39;8.00;99.90
44136;DHT22;29798;51.064;13.734;2022-11-11T19:54:23;7.90;99.90
44136;DHT22;29798;51.064;13.734;2022-11-11T19:57:08;7.90;99.90
44136;DHT22;29798;51.064;13.734;2022-11-11T19:59:52;7.80;99.90
44136;DHT22;29798;51.064;13.734;2022-11-11T20:02:36;7.80;99.90
44136;DHT22;29798;51.064;13.734;2022-11-11T20:05:20;7.80;99.90
44136;DHT22;29798;51.064;13.734;2022-11-11T20:08:05;7.70;99.90
44136;DHT22;29798;51.064;13.734;2022-11-11T20:10:50;7.70;99.90
44136;DHT22;29798;51.064;13.734;2022-11-11T20:13:34;7.70;99.90
44136;DHT22;29798;51.064;13.734;2022-11-11T20:16:18;7.70;99.90
44136;DHT22;29798;51.064;13.734;2022-11-11T20:19:03;7.80;99.90
44136;DHT22;29798;51.064;13.734;2022-11-11T20:21:47;7.80;99.90
44136;DHT22;29798;51.064;13.734;2022-11-11T20:24:32;7.90;99.90
44136;DHT22;29798;51.064;13.734;2022-11-11T20:27:16;8.00;99.90
44136;DHT22;29798;51.064;13.734;2022-11-11T20:30:00;8.10;99.90
44136;DHT22;29798;51.064;13.734;2022-11-11T20:32:45;8.10;99.90